createdAt,value
2022-11-04T00:00:07.381Z,4149.1
2022-11-04T00:05:42.630Z,4148.3
2022-11-04T00:11:17.594Z,4149.1
2022-11-04T00:16:53.589Z,4148.6
2022-11-04T00:22:28.492Z,4148.1
2022-11-04T00:28:03.386Z,4150.6
2022-11-04T00:33:38.447Z,4148
2022-11-04T00:39:13.553Z,4146.6
2022-11-04T00:44:48.334Z,4148.1
2022-11-04T00:50:23.456Z,4147
2022-11-04T00:55:58.072Z,4148.3
2022-11-04T01:01:36.205Z,4147.8
2022-11-04T01:07:11.343Z,4149.6
2022-11-04T01:12:52.519Z,4146.1
2022-11-04T01:18:27.387Z,4146.8
2022-11-04T01:24:02.268Z,4148.1
2022-11-04T01:29:36.998Z,4147.1
2022-11-04T01:35:12.759Z,4147.8
2022-11-04T01:40:47.878Z,4146.3
2022-11-04T01:46:48.678Z,4142.3
2022-11-04T01:52:21.490Z,4145.1
2022-11-04T01:57:56.405Z,4145.3
2022-11-04T02:03:31.167Z,4142.8
2022-11-04T02:09:07.455Z,4145.8
2022-11-04T02:14:43.358Z,4143.4
2022-11-04T02:20:18.417Z,4143.1
2022-11-04T02:25:53.387Z,4142.4
2022-11-04T02:31:28.079Z,4142.3
2022-11-04T02:37:04.008Z,4143.4
2022-11-04T02:42:38.934Z,4143.4
2022-11-04T02:48:35.796Z,4138.1
2022-11-04T02:54:09.634Z,4140.9
2022-11-04T02:59:45.280Z,4141.9
2022-11-04T03:05:20.434Z,4141.1
2022-11-04T03:10:55.410Z,4140.1
2022-11-04T03:16:30.609Z,4141.3
2022-11-04T03:22:06.428Z,4140.6
2022-11-04T03:27:41.828Z,4138.3
2022-11-04T03:33:16.900Z,4142.1
2022-11-04T03:38:51.909Z,4143.9
2022-11-04T03:44:27.160Z,4138.4
2022-11-04T03:50:02.212Z,4139.4
2022-11-04T03:55:36.950Z,4139.6
2022-11-04T04:01:12.533Z,4139.1
2022-11-04T04:06:48.391Z,4139.1
2022-11-04T04:12:23.234Z,4135.7
2022-11-04T04:17:58.148Z,4137.9
2022-11-04T04:23:34.079Z,4136.2
2022-11-04T04:29:08.859Z,4136.1
2022-11-04T04:34:43.830Z,4139.6
2022-11-04T04:40:26.249Z,4139.6
2022-11-04T04:46:23.229Z,4133.2
2022-11-04T04:51:56.004Z,4135.9
2022-11-04T04:57:30.916Z,4137.1
2022-11-04T05:03:07.691Z,4136.2
2022-11-04T05:08:43.215Z,4138.1
2022-11-04T05:14:18.048Z,4133.9
2022-11-04T05:19:54.278Z,4136.4
2022-11-04T05:25:29.059Z,4134.7
2022-11-04T05:31:04.397Z,4135.2
2022-11-04T05:36:40.540Z,4135.6
2022-11-04T05:42:15.372Z,4134.1
2022-11-04T05:48:12.316Z,4131.7
2022-11-04T05:53:45.024Z,4131.2
2022-11-04T05:59:20.137Z,4131.1
2022-11-04T06:04:55.033Z,4132.1
2022-11-04T06:10:36.844Z,4133.4
2022-11-04T06:16:12.630Z,4135.9
2022-11-04T06:21:47.621Z,4131.4
2022-11-04T06:27:22.493Z,4133.6
2022-11-04T06:32:58.456Z,4130.2
2022-11-04T06:38:34.584Z,4132.7
2022-11-04T06:44:10.622Z,4130.4
2022-11-04T06:49:45.542Z,4129.7
2022-11-04T06:55:21.585Z,4131.6
2022-11-04T07:00:58.648Z,4128.7
2022-11-04T07:06:36.261Z,4129.4
2022-11-04T07:12:34.121Z,4127
2022-11-04T07:18:12.932Z,4129.5
2022-11-04T07:23:48.990Z,4127.7
2022-11-04T07:29:23.903Z,4127
2022-11-04T07:34:58.897Z,4123.2
2022-11-04T07:40:33.631Z,4124.4
2022-11-04T07:46:30.091Z,4123.2
2022-11-04T07:52:04.209Z,4123
2022-11-04T07:57:43.461Z,4123.3
2022-11-04T08:03:19.151Z,4124.7
2022-11-04T08:10:40.827Z,4128
2022-11-04T08:16:16.934Z,4123
2022-11-04T08:21:52.465Z,4125.5
2022-11-04T08:27:28.629Z,4138.8
2022-11-04T08:33:03.629Z,4128.4
2022-11-04T08:38:38.738Z,4139.4
2022-11-04T08:44:14.064Z,4142.1
2022-11-04T08:49:50.666Z,4154.3
2022-11-04T08:55:26.697Z,4141.3
2022-11-04T09:01:02.845Z,4127.4
2022-11-04T09:06:42.493Z,4128.2
2022-11-04T09:12:19.546Z,4125.4
2022-11-04T09:17:55.682Z,4129
2022-11-04T09:23:30.511Z,4129.2
2022-11-04T09:29:05.520Z,4162
2022-11-04T09:34:42.086Z,4169.9
2022-11-04T09:40:18.254Z,4152.8
2022-11-04T09:46:15.362Z,4153.2
2022-11-04T09:51:58.182Z,4192.9
2022-11-04T09:57:34.052Z,4181.1
2022-11-04T10:03:13.087Z,4179.8
2022-11-04T10:08:49.505Z,4197.7
2022-11-04T10:14:24.558Z,4190.7
2022-11-04T10:19:59.987Z,4193.2
2022-11-04T10:25:36.827Z,4190.7
2022-11-04T10:31:12.054Z,4194.4
2022-11-04T10:36:47.064Z,4183.6
2022-11-04T10:42:24.464Z,4204.9
2022-11-04T10:48:21.168Z,4190
2022-11-04T10:53:54.863Z,4208.3
2022-11-04T10:59:30.051Z,4202.7
2022-11-04T11:05:06.142Z,4196.9
2022-11-04T11:10:42.810Z,4197.7
2022-11-04T11:16:18.060Z,4210.1
2022-11-04T11:21:52.835Z,4209.1
2022-11-04T11:27:27.976Z,4209.1
2022-11-04T11:33:04.053Z,4202.4
2022-11-04T11:38:39.177Z,4176.3
2022-11-04T11:44:14.074Z,4208.8
2022-11-04T11:49:48.886Z,4201.9
2022-11-04T11:55:24.040Z,4204.8
2022-11-04T12:01:26.502Z,4202.2
2022-11-04T12:09:23.492Z,4182.6
2022-11-04T12:14:58.835Z,4174.3
2022-11-04T12:20:33.264Z,4185.5
2022-11-04T12:26:08.477Z,4190.7
2022-11-04T12:31:43.317Z,4198.9
2022-11-04T12:37:18.369Z,4212.5
2022-11-04T12:42:54.329Z,4212.3
2022-11-04T12:49:07.954Z,4199.9
2022-11-04T12:54:40.907Z,4218.5
2022-11-04T13:00:16.261Z,4196.7
2022-11-04T13:05:51.423Z,4207.9
2022-11-04T13:11:28.516Z,4194.9
2022-11-04T13:17:09.980Z,4208.1
2022-11-04T13:22:57.808Z,4218
2022-11-04T13:28:46.706Z,4215
2022-11-04T13:34:28.079Z,4216.8
2022-11-04T13:40:05.813Z,4199.4
2022-11-04T13:45:40.613Z,4212.1
2022-11-04T13:51:16.950Z,4186.8
2022-11-04T13:56:54.464Z,4189.8
2022-11-04T14:02:29.743Z,4222
2022-11-04T14:08:09.206Z,4215.3
2022-11-04T14:13:52.893Z,4215.1
2022-11-04T14:19:30.704Z,4222.7
2022-11-04T14:25:11.107Z,4194.7
2022-11-04T14:30:46.309Z,4193.9
2022-11-04T14:36:21.362Z,4183
2022-11-04T14:41:57.246Z,4188.7
2022-11-04T14:47:53.870Z,4186.2
2022-11-04T14:53:26.335Z,4202.9
2022-11-04T14:59:01.514Z,4221
2022-11-04T15:04:36.933Z,4214
2022-11-04T15:10:12.800Z,4206.4
2022-11-04T15:15:47.830Z,4194.2
2022-11-04T15:21:23.664Z,4210.3
2022-11-04T15:26:58.623Z,4198.1
2022-11-04T15:32:33.603Z,4191.4
2022-11-04T15:38:08.516Z,4179.1
2022-11-04T15:43:43.603Z,4192.2
2022-11-04T15:49:18.899Z,4192
2022-11-04T15:54:54.304Z,4194.9
2022-11-04T16:00:29.714Z,4193.5
2022-11-04T16:06:04.410Z,4187.8
2022-11-04T16:11:47.673Z,4187
2022-11-04T16:17:23.509Z,4186.5
2022-11-04T16:22:58.443Z,4184.5
2022-11-04T16:28:52.219Z,4181.6
2022-11-04T16:34:26.943Z,4177.3
2022-11-04T16:40:30.280Z,4178.8
2022-11-04T16:46:05.383Z,4177.1
2022-11-04T16:51:41.918Z,4179.5
2022-11-04T16:57:19.668Z,4175.8
2022-11-04T17:02:54.791Z,4174.6
2022-11-04T17:08:29.737Z,4175.3
2022-11-04T17:14:05.261Z,4175.1
2022-11-04T17:19:40.698Z,4172.8
2022-11-04T17:25:22.106Z,4175.4
2022-11-04T17:30:57.521Z,4172.1
2022-11-04T17:36:32.531Z,4173.4
2022-11-04T17:42:07.495Z,4171.8
2022-11-04T17:48:03.973Z,4168.7
2022-11-04T17:53:37.508Z,4173.4
2022-11-04T17:59:22.047Z,4169.9
2022-11-04T18:04:58.364Z,4171.9
2022-11-04T18:10:34.431Z,4168.1
2022-11-04T18:16:09.394Z,4169.1
2022-11-04T18:22:00.403Z,4171.1
2022-11-04T18:27:39.918Z,4167.6
2022-11-04T18:33:26.484Z,4168.2
2022-11-04T18:39:13.428Z,4164.7
2022-11-04T18:44:51.049Z,4170.7
2022-11-04T18:50:28.099Z,4165.1
2022-11-04T18:56:18.372Z,4165.9
2022-11-04T19:01:55.462Z,4167.4
2022-11-04T19:07:53.136Z,4166.6
2022-11-04T19:13:31.182Z,4166.9
2022-11-04T19:19:23.873Z,4166.1
2022-11-04T19:25:32.541Z,4165.1
2022-11-04T19:31:07.753Z,4163.4
2022-11-04T19:36:42.447Z,4162.2
2022-11-04T19:42:17.693Z,4166.2
2022-11-04T19:47:59.667Z,4163.7
2022-11-04T19:53:34.944Z,4164.6
2022-11-04T19:59:10.208Z,4163.5
2022-11-04T20:04:45.428Z,4161.2
2022-11-04T20:10:20.627Z,4163
2022-11-04T20:15:55.709Z,4163.7
2022-11-04T20:21:30.995Z,4164.6
2022-11-04T20:27:06.157Z,4163.4
2022-11-04T20:32:44.196Z,4160.7
2022-11-04T20:38:22.347Z,4162.7
2022-11-04T20:44:01.248Z,4161
2022-11-04T20:49:36.636Z,4157.9
2022-11-04T20:55:37.368Z,4160
2022-11-04T21:01:14.117Z,4160
2022-11-04T21:06:49.212Z,4160.5
2022-11-04T21:12:26.932Z,4158.9
2022-11-04T21:18:03.956Z,4159.2
2022-11-04T21:23:42.339Z,4158.5
2022-11-04T21:29:24.974Z,4160.5
2022-11-04T21:34:59.926Z,4160.5
2022-11-04T21:40:35.898Z,4158.2
2022-11-04T21:46:32.599Z,4153
2022-11-04T21:52:10.251Z,4157.9
2022-11-04T21:57:46.125Z,4156.3
2022-11-04T22:03:21.370Z,4157.7
2022-11-04T22:08:59.085Z,4155.7
2022-11-04T22:14:33.966Z,4156
2022-11-04T22:20:09.894Z,4156.8
2022-11-04T22:25:51.357Z,4156.3
2022-11-04T22:31:26.413Z,4153.2
2022-11-04T22:37:01.823Z,4153.7
2022-11-04T22:42:37.698Z,4154.5
2022-11-04T22:48:34.521Z,4150.5
2022-11-04T22:54:10.710Z,4155.2
2022-11-04T22:59:45.571Z,4154.2
2022-11-04T23:05:20.374Z,4153.8
2022-11-04T23:10:55.533Z,4154.2
2022-11-04T23:16:30.627Z,4153.8
2022-11-04T23:22:05.497Z,4153.2
2022-11-04T23:27:40.787Z,4155
2022-11-04T23:33:17.099Z,4152.7
2022-11-04T23:38:54.840Z,4154.2
2022-11-04T23:44:29.987Z,4152.8
2022-11-04T23:50:05.161Z,4152.3
2022-11-04T23:55:40.255Z,4151.3
